createdAt,value
2019-01-25T00:00:50.664Z,22.70
2019-01-25T00:03:18.915Z,25.00
2019-01-25T00:05:47.208Z,24.83
2019-01-25T00:08:15.455Z,24.73
2019-01-25T00:10:43.644Z,25.30
2019-01-25T00:13:11.877Z,23.60
2019-01-25T00:15:40.047Z,24.27
2019-01-25T00:18:08.307Z,22.87
2019-01-25T00:20:36.552Z,25.17
2019-01-25T00:23:04.819Z,24.23
2019-01-25T00:25:33.130Z,24.70
2019-01-25T00:28:01.482Z,23.30
2019-01-25T00:30:29.761Z,25.30
2019-01-25T00:32:57.973Z,25.40
2019-01-25T00:35:26.230Z,23.77
2019-01-25T00:37:54.524Z,24.20
2019-01-25T00:40:23.005Z,23.73
2019-01-25T00:42:51.367Z,25.20
2019-01-25T00:45:19.674Z,26.03
2019-01-25T00:47:47.965Z,25.57
2019-01-25T00:50:17.700Z,24.37
2019-01-25T00:52:45.993Z,26.07
2019-01-25T00:55:14.212Z,25.40
2019-01-25T00:57:42.458Z,22.37
2019-01-25T01:00:15.035Z,25.37
2019-01-25T01:02:43.325Z,25.27
2019-01-25T01:05:11.708Z,25.30
2019-01-25T01:07:39.945Z,24.67
2019-01-25T01:10:14.019Z,25.10
2019-01-25T01:12:39.777Z,21.97
2019-01-25T01:15:09.624Z,23.60
2019-01-25T01:17:37.812Z,24.20
2019-01-25T01:20:10.211Z,23.30
2019-01-25T01:22:39.162Z,23.30
2019-01-25T01:25:07.756Z,24.57
2019-01-25T01:27:36.007Z,23.47
2019-01-25T01:30:05.834Z,23.57
2019-01-25T01:32:34.125Z,25.13
2019-01-25T01:35:02.373Z,24.50
2019-01-25T01:37:30.581Z,22.83
2019-01-25T01:39:58.790Z,24.03
2019-01-25T01:42:27.013Z,24.40
2019-01-25T01:44:55.275Z,22.57
2019-01-25T01:47:23.598Z,24.07
2019-01-25T01:49:51.914Z,22.67
2019-01-25T01:52:20.171Z,23.77
2019-01-25T01:54:48.392Z,23.70
2019-01-25T01:57:16.586Z,24.13
2019-01-25T01:59:44.845Z,22.10
2019-01-25T02:02:13.056Z,22.47
2019-01-25T02:04:42.222Z,23.37
2019-01-25T02:07:10.496Z,24.13
2019-01-25T02:09:38.747Z,23.53
2019-01-25T02:12:07.070Z,22.07
2019-01-25T02:14:35.925Z,25.53
2019-01-25T02:17:04.304Z,23.37
2019-01-25T02:19:32.529Z,23.03
2019-01-25T02:22:00.710Z,24.60
2019-01-25T02:24:28.970Z,24.40
2019-01-25T02:26:57.214Z,24.90
2019-01-25T02:29:25.498Z,23.30
2019-01-25T02:31:53.802Z,23.23
2019-01-25T02:34:22.098Z,22.43
2019-01-25T02:36:50.405Z,24.17
2019-01-25T02:39:18.658Z,23.70
2019-01-25T02:41:46.911Z,23.53
2019-01-25T02:44:15.194Z,22.40
2019-01-25T02:46:43.500Z,23.50
2019-01-25T02:49:11.791Z,22.57
2019-01-25T02:51:40.005Z,24.13
2019-01-25T02:54:08.250Z,23.67
2019-01-25T02:56:36.580Z,23.20
2019-01-25T02:59:04.890Z,23.10
2019-01-25T03:01:34.060Z,21.77
2019-01-25T03:04:02.332Z,23.67
2019-01-25T03:06:30.606Z,23.50
2019-01-25T03:08:58.868Z,24.10
2019-01-25T03:11:27.131Z,24.33
2019-01-25T03:13:55.416Z,23.80
2019-01-25T03:16:23.666Z,23.87
2019-01-25T03:18:51.998Z,26.53
2019-01-25T03:21:20.281Z,25.70
2019-01-25T03:23:48.505Z,23.73
2019-01-25T03:26:16.726Z,23.03
2019-01-25T03:28:44.946Z,23.37
2019-01-25T03:31:13.129Z,25.23
2019-01-25T03:33:41.359Z,23.97
2019-01-25T03:36:09.542Z,23.77
2019-01-25T03:38:37.736Z,24.37
2019-01-25T03:41:05.942Z,23.93
2019-01-25T03:43:34.157Z,25.00
2019-01-25T03:46:02.349Z,24.77
2019-01-25T03:48:30.539Z,24.77
2019-01-25T03:50:58.769Z,25.60
2019-01-25T03:53:26.984Z,23.73
2019-01-25T03:55:55.171Z,24.03
2019-01-25T03:58:23.355Z,24.77
2019-01-25T04:00:51.589Z,26.47
2019-01-25T04:03:19.866Z,24.03
2019-01-25T04:05:48.089Z,23.83
2019-01-25T04:08:16.300Z,23.93
2019-01-25T04:10:44.525Z,24.17
2019-01-25T04:13:12.704Z,24.17
2019-01-25T04:15:40.926Z,25.10
2019-01-25T04:18:09.137Z,25.23
2019-01-25T04:20:37.337Z,25.53
2019-01-25T04:23:05.527Z,25.30
2019-01-25T04:25:33.723Z,25.50
2019-01-25T04:28:01.997Z,24.07
2019-01-25T04:30:30.789Z,26.00
2019-01-25T04:32:59.096Z,26.03
2019-01-25T04:35:27.368Z,24.30
2019-01-25T04:37:55.584Z,25.60
2019-01-25T04:40:23.813Z,24.70
2019-01-25T04:42:52.372Z,25.40
2019-01-25T04:45:21.333Z,24.73
2019-01-25T04:47:49.796Z,25.03
2019-01-25T04:50:19.351Z,25.43
2019-01-25T04:52:48.197Z,24.93
2019-01-25T04:55:21.106Z,23.73
2019-01-25T04:57:50.220Z,27.33
2019-01-25T05:00:19.748Z,24.17
2019-01-25T05:02:53.205Z,25.73
2019-01-25T05:05:21.520Z,26.57
2019-01-25T05:07:49.713Z,26.43
2019-01-25T05:10:17.916Z,24.70
2019-01-25T05:12:52.968Z,26.37
2019-01-25T05:15:21.609Z,25.70
2019-01-25T05:17:54.188Z,25.57
2019-01-25T05:20:22.386Z,25.93
2019-01-25T05:22:54.412Z,25.00
2019-01-25T05:25:23.362Z,25.30
2019-01-25T05:27:51.744Z,27.67
2019-01-25T05:30:20.334Z,26.93
2019-01-25T05:32:48.508Z,26.83
2019-01-25T05:35:19.624Z,26.30
2019-01-25T05:37:48.038Z,26.77
2019-01-25T05:40:20.530Z,26.93
2019-01-25T05:42:48.726Z,26.60
2019-01-25T05:45:17.111Z,26.67
2019-01-25T05:47:45.339Z,27.00
2019-01-25T05:50:14.301Z,24.40
2019-01-25T05:52:42.496Z,26.70
2019-01-25T05:55:12.291Z,25.37
2019-01-25T05:57:40.505Z,27.43
2019-01-25T06:00:12.985Z,26.53
2019-01-25T06:02:41.168Z,26.93
2019-01-25T06:05:10.137Z,26.17
2019-01-25T06:07:38.337Z,25.53
2019-01-25T06:10:12.879Z,26.30
2019-01-25T06:12:41.094Z,27.17
2019-01-25T06:15:10.557Z,28.00
2019-01-25T06:17:38.841Z,28.10
2019-01-25T06:20:08.602Z,24.20
2019-01-25T06:22:36.861Z,25.43
2019-01-25T06:25:06.515Z,24.37
2019-01-25T06:27:38.388Z,24.23
2019-01-25T06:30:10.906Z,24.07
2019-01-25T06:32:39.088Z,24.70
2019-01-25T06:35:08.386Z,24.17
2019-01-25T06:37:36.609Z,24.63
2019-01-25T06:40:06.737Z,25.53
2019-01-25T06:42:34.971Z,25.20
2019-01-25T06:45:04.236Z,24.87
2019-01-25T06:47:32.424Z,26.73
2019-01-25T06:50:00.919Z,24.67
2019-01-25T06:52:29.137Z,25.43
2019-01-25T06:54:57.380Z,25.63
2019-01-25T06:57:27.215Z,24.20
2019-01-25T06:59:55.400Z,26.27
2019-01-25T07:02:24.486Z,24.70
2019-01-25T07:04:52.660Z,26.03
2019-01-25T07:07:22.492Z,26.57
2019-01-25T07:09:50.683Z,26.13
2019-01-25T07:12:18.886Z,26.30
2019-01-25T07:14:47.084Z,25.27
2019-01-25T07:17:16.164Z,26.87
2019-01-25T07:19:44.356Z,26.70
2019-01-25T07:22:12.573Z,24.90
2019-01-25T07:24:40.845Z,26.00
2019-01-25T07:27:09.032Z,24.97
2019-01-25T07:29:37.258Z,27.50
2019-01-25T07:32:05.685Z,27.07
2019-01-25T07:34:33.877Z,26.80
2019-01-25T07:37:02.098Z,26.00
2019-01-25T07:39:30.313Z,26.20
2019-01-25T07:41:59.448Z,27.60
2019-01-25T07:44:28.418Z,27.63
2019-01-25T07:46:56.708Z,25.60
2019-01-25T07:49:24.972Z,25.70
2019-01-25T07:51:53.232Z,27.10
2019-01-25T07:54:21.465Z,28.70
2019-01-25T07:56:49.774Z,28.17
2019-01-25T07:59:18.093Z,26.60
2019-01-25T08:01:46.272Z,26.70
2019-01-25T08:04:14.485Z,27.30
2019-01-25T08:06:42.707Z,27.67
2019-01-25T08:09:10.918Z,27.93
2019-01-25T08:11:39.108Z,29.90
2019-01-25T08:14:07.397Z,30.13
2019-01-25T08:16:35.642Z,28.47
2019-01-25T08:19:03.885Z,29.63
2019-01-25T08:21:32.145Z,27.23
2019-01-25T08:24:00.372Z,29.23
2019-01-25T08:26:28.557Z,28.53
2019-01-25T08:28:56.757Z,28.93
2019-01-25T08:31:24.985Z,29.87
2019-01-25T08:33:53.173Z,29.00
2019-01-25T08:36:21.405Z,30.37
2019-01-25T08:38:49.686Z,30.90
2019-01-25T08:41:17.893Z,30.33
2019-01-25T08:43:46.226Z,30.47
2019-01-25T08:46:14.498Z,30.70
2019-01-25T08:48:42.762Z,29.83
2019-01-25T08:51:11.439Z,30.60
2019-01-25T08:53:41.501Z,29.37
2019-01-25T08:56:09.821Z,30.27
2019-01-25T08:58:38.068Z,29.30
2019-01-25T09:01:07.265Z,29.10
2019-01-25T09:03:35.491Z,29.10
2019-01-25T09:06:03.743Z,29.00
2019-01-25T09:08:32.032Z,29.93
2019-01-25T09:11:00.270Z,28.53
2019-01-25T09:13:28.501Z,29.67
2019-01-25T09:15:56.703Z,27.43
2019-01-25T09:18:24.902Z,29.80
2019-01-25T09:20:53.127Z,27.63
2019-01-25T09:23:21.311Z,29.13
2019-01-25T09:25:49.553Z,29.67
2019-01-25T09:28:17.808Z,29.03
2019-01-25T09:30:46.020Z,28.13
2019-01-25T09:33:14.211Z,27.63
2019-01-25T09:35:42.437Z,27.40
2019-01-25T09:38:10.685Z,28.13
2019-01-25T09:40:38.969Z,27.43
2019-01-25T09:43:07.205Z,27.77
2019-01-25T09:45:35.412Z,26.97
2019-01-25T09:48:03.869Z,27.87
2019-01-25T09:50:32.105Z,28.10
2019-01-25T09:53:00.325Z,26.63
2019-01-25T09:55:28.540Z,29.70
2019-01-25T09:58:13.596Z,27.43
2019-01-25T10:00:46.340Z,25.90
2019-01-25T10:03:14.528Z,28.50
2019-01-25T10:05:42.761Z,27.07
2019-01-25T10:08:10.940Z,25.70
2019-01-25T10:10:39.181Z,28.50
2019-01-25T10:13:07.368Z,26.33
2019-01-25T10:15:35.593Z,24.70
2019-01-25T10:18:03.876Z,25.50
2019-01-25T10:20:32.182Z,23.57
2019-01-25T10:23:01.855Z,24.53
2019-01-25T10:25:30.160Z,21.27
2019-01-25T10:27:58.364Z,22.47
2019-01-25T10:30:27.149Z,19.70
2019-01-25T10:32:55.385Z,20.80
2019-01-25T10:35:23.653Z,19.80
2019-01-25T10:37:52.400Z,18.40
2019-01-25T10:40:21.069Z,18.97
2019-01-25T10:42:53.193Z,18.20
2019-01-25T10:45:23.460Z,17.03
2019-01-25T10:47:51.676Z,17.70
2019-01-25T10:50:19.908Z,19.87
2019-01-25T10:52:48.160Z,18.47
2019-01-25T10:55:16.441Z,18.73
2019-01-25T10:57:44.851Z,18.80
2019-01-25T11:00:14.567Z,19.77
2019-01-25T11:02:42.769Z,21.27
2019-01-25T11:05:18.281Z,20.20
2019-01-25T11:07:46.489Z,17.13
2019-01-25T11:10:14.703Z,17.17
2019-01-25T11:12:43.167Z,18.70
2019-01-25T11:15:13.340Z,17.03
2019-01-25T11:17:41.576Z,16.33
2019-01-25T11:20:11.635Z,16.87
2019-01-25T11:22:39.852Z,19.03
2019-01-25T11:25:09.576Z,18.10
2019-01-25T11:27:38.769Z,17.83
2019-01-25T11:30:08.541Z,18.13
2019-01-25T11:32:36.763Z,17.50
2019-01-25T11:35:05.536Z,17.90
2019-01-25T11:37:33.752Z,17.80
2019-01-25T11:40:01.969Z,17.77
2019-01-25T11:42:30.185Z,17.70
2019-01-25T11:44:58.472Z,18.40
2019-01-25T11:47:26.720Z,18.23
2019-01-25T11:49:54.915Z,16.90
2019-01-25T11:52:25.165Z,17.17
2019-01-25T11:54:53.038Z,18.30
2019-01-25T11:57:21.249Z,18.20
2019-01-25T11:59:49.460Z,19.40
2019-01-25T12:02:20.976Z,20.23
2019-01-25T12:04:48.560Z,19.53
2019-01-25T12:07:16.778Z,19.20
2019-01-25T12:09:45.013Z,20.03
2019-01-25T12:12:13.220Z,19.87
2019-01-25T12:14:41.470Z,18.50
2019-01-25T12:17:09.745Z,18.80
2019-01-25T12:19:38.001Z,17.87
2019-01-25T12:22:06.213Z,15.87
2019-01-25T12:24:34.393Z,17.97
2019-01-25T12:27:02.612Z,17.93
2019-01-25T12:29:30.871Z,17.40
2019-01-25T12:31:59.233Z,20.00
2019-01-25T12:34:27.412Z,19.23
2019-01-25T12:36:55.616Z,15.70
2019-01-25T12:41:51.465Z,16.90
2019-01-25T12:46:47.040Z,18.00
2019-01-25T12:49:15.273Z,20.00
2019-01-25T12:51:43.762Z,20.10
2019-01-25T12:54:12.077Z,19.50
2019-01-25T12:56:40.289Z,20.87
2019-01-25T12:59:08.505Z,18.40
2019-01-25T13:01:36.816Z,19.70
2019-01-25T13:04:05.029Z,21.23
2019-01-25T13:06:33.232Z,20.77
2019-01-25T13:09:01.417Z,19.60
2019-01-25T13:11:29.628Z,20.67
2019-01-25T13:13:57.811Z,22.30
2019-01-25T13:16:26.013Z,22.27
2019-01-25T13:18:54.235Z,18.63
2019-01-25T13:21:22.520Z,21.07
2019-01-25T13:23:50.724Z,20.50
2019-01-25T13:26:19.021Z,21.97
2019-01-25T13:28:47.211Z,21.53
2019-01-25T13:31:15.503Z,19.93
2019-01-25T13:33:45.695Z,20.43
2019-01-25T13:36:13.948Z,20.20
2019-01-25T13:38:42.210Z,21.13
2019-01-25T13:41:10.399Z,22.33
2019-01-25T13:43:39.207Z,21.27
2019-01-25T13:46:07.660Z,18.20
2019-01-25T13:48:35.878Z,19.40
2019-01-25T13:51:04.265Z,21.10
2019-01-25T13:53:32.478Z,22.17
2019-01-25T13:56:00.668Z,19.60
2019-01-25T13:58:29.096Z,20.10
2019-01-25T14:00:57.288Z,21.87
2019-01-25T14:03:25.506Z,20.23
2019-01-25T14:05:53.732Z,21.23
2019-01-25T14:08:21.912Z,24.03
2019-01-25T14:10:50.169Z,21.23
2019-01-25T14:13:18.377Z,22.30
2019-01-25T14:18:13.943Z,22.50
2019-01-25T14:20:42.159Z,21.80
2019-01-25T14:23:10.367Z,21.10
2019-01-25T14:25:38.567Z,22.60
2019-01-25T14:28:06.778Z,23.20
2019-01-25T14:30:36.075Z,22.57
2019-01-25T14:33:05.175Z,21.93
2019-01-25T14:35:33.441Z,21.15
2019-01-25T14:38:01.704Z,23.07
2019-01-25T14:40:29.929Z,22.97
2019-01-25T14:42:58.142Z,22.23
2019-01-25T14:45:27.733Z,22.57
2019-01-25T14:47:55.920Z,22.60
2019-01-25T14:50:25.576Z,24.60
2019-01-25T14:52:53.804Z,24.80
2019-01-25T14:55:21.984Z,23.53
2019-01-25T14:57:50.196Z,26.93
2019-01-25T15:00:18.417Z,28.90
2019-01-25T15:02:46.613Z,25.87
2019-01-25T15:05:16.184Z,24.67
2019-01-25T15:07:44.380Z,23.97
2019-01-25T15:10:16.377Z,25.50
2019-01-25T15:12:44.667Z,25.73
2019-01-25T15:15:13.645Z,27.20
2019-01-25T15:17:41.870Z,27.13
2019-01-25T15:20:14.618Z,27.40
2019-01-25T15:22:43.873Z,26.80
2019-01-25T15:25:12.126Z,26.60
2019-01-25T15:27:40.355Z,21.70
2019-01-25T15:30:14.309Z,24.27
2019-01-25T15:32:42.491Z,22.83
2019-01-25T15:35:11.770Z,23.97
2019-01-25T15:37:39.948Z,23.97
2019-01-25T15:40:09.741Z,25.17
2019-01-25T15:42:37.965Z,24.57
2019-01-25T15:45:08.036Z,23.93
2019-01-25T15:47:36.236Z,24.73
2019-01-25T15:50:15.117Z,26.00
2019-01-25T15:52:43.325Z,24.90
2019-01-25T15:55:11.642Z,24.83
2019-01-25T15:57:39.863Z,26.07
2019-01-25T16:00:18.400Z,26.87
2019-01-25T16:02:46.675Z,25.03
2019-01-25T16:05:15.830Z,25.07
2019-01-25T16:07:44.084Z,27.27
2019-01-25T16:10:13.468Z,30.50
2019-01-25T16:12:41.660Z,30.20
2019-01-25T16:15:11.390Z,29.07
2019-01-25T16:17:39.667Z,26.97
2019-01-25T16:20:09.461Z,26.10
2019-01-25T16:22:37.691Z,25.93
2019-01-25T16:25:07.480Z,25.87
2019-01-25T16:27:35.664Z,24.40
2019-01-25T16:30:05.454Z,27.77
2019-01-25T16:32:33.745Z,24.70
2019-01-25T16:35:01.946Z,25.60
2019-01-25T16:37:30.132Z,26.63
2019-01-25T16:39:58.390Z,25.00
2019-01-25T16:42:26.628Z,25.40
2019-01-25T16:44:54.863Z,24.73
2019-01-25T16:47:23.074Z,24.87
2019-01-25T16:49:51.283Z,23.73
2019-01-25T16:52:19.504Z,24.50
2019-01-25T16:54:47.795Z,25.53
2019-01-25T16:57:16.064Z,25.80
2019-01-25T16:59:44.247Z,25.27
2019-01-25T17:02:12.492Z,25.20
2019-01-25T17:04:40.711Z,26.10
2019-01-25T17:07:08.971Z,24.33
2019-01-25T17:09:37.167Z,24.73
2019-01-25T17:12:05.417Z,25.87
2019-01-25T17:14:33.767Z,25.73
2019-01-25T17:17:01.991Z,27.70
2019-01-25T17:19:30.211Z,26.70
2019-01-25T17:21:58.401Z,26.33
2019-01-25T17:24:26.588Z,24.50
2019-01-25T17:26:54.783Z,24.03
2019-01-25T17:29:23.010Z,23.23
2019-01-25T17:31:51.281Z,25.80
2019-01-25T17:34:19.500Z,24.03
2019-01-25T17:36:47.714Z,26.43
2019-01-25T17:39:15.944Z,27.03
2019-01-25T17:41:44.129Z,26.47
2019-01-25T17:44:12.315Z,24.67
2019-01-25T17:46:40.585Z,24.10
2019-01-25T17:49:09.752Z,25.63
2019-01-25T17:51:38.106Z,26.13
2019-01-25T17:54:06.292Z,24.73
2019-01-25T17:56:34.484Z,24.10
2019-01-25T17:59:02.688Z,25.73
2019-01-25T18:01:30.937Z,25.97
2019-01-25T18:03:59.124Z,24.03
2019-01-25T18:06:27.330Z,26.90
2019-01-25T18:08:55.528Z,26.13
2019-01-25T18:11:23.719Z,29.07
2019-01-25T18:13:51.923Z,25.37
2019-01-25T18:16:20.140Z,25.30
2019-01-25T18:18:48.324Z,26.20
2019-01-25T18:21:16.532Z,28.17
2019-01-25T18:23:44.727Z,27.13
2019-01-25T18:26:13.124Z,26.40
2019-01-25T18:28:41.968Z,25.87
2019-01-25T18:31:11.738Z,27.23
2019-01-25T18:33:39.949Z,26.33
2019-01-25T18:36:08.151Z,28.00
2019-01-25T18:38:36.367Z,26.57
2019-01-25T18:41:04.642Z,26.87
2019-01-25T18:43:32.836Z,28.47
2019-01-25T18:46:01.024Z,27.10
2019-01-25T18:48:29.256Z,27.80
2019-01-25T18:50:57.485Z,25.90
2019-01-25T18:53:25.721Z,28.73
2019-01-25T18:55:57.197Z,26.73
2019-01-25T18:58:25.416Z,26.63
2019-01-25T19:00:53.640Z,27.70
2019-01-25T19:03:21.819Z,26.90
2019-01-25T19:05:50.059Z,26.80
2019-01-25T19:08:18.298Z,27.53
2019-01-25T19:10:46.603Z,27.60
2019-01-25T19:13:14.800Z,26.17
2019-01-25T19:15:43.037Z,28.43
2019-01-25T19:18:11.256Z,28.23
2019-01-25T19:20:39.489Z,27.80
2019-01-25T19:23:07.713Z,27.00
2019-01-25T19:25:35.930Z,28.10
2019-01-25T19:28:04.118Z,27.97
2019-01-25T19:30:36.748Z,26.83
2019-01-25T19:33:05.024Z,28.73
2019-01-25T19:35:33.208Z,26.97
2019-01-25T19:38:01.441Z,27.10
2019-01-25T19:40:30.936Z,27.87
2019-01-25T19:42:59.128Z,29.20
2019-01-25T19:45:27.396Z,28.10
2019-01-25T19:47:55.621Z,27.50
2019-01-25T19:50:23.916Z,27.47
2019-01-25T19:52:52.111Z,25.67
2019-01-25T19:55:21.500Z,23.40
2019-01-25T19:57:49.992Z,24.40
2019-01-25T20:00:19.977Z,22.20
2019-01-25T20:02:48.201Z,19.03
2019-01-25T20:05:17.972Z,20.30
2019-01-25T20:07:46.156Z,19.97
2019-01-25T20:10:14.805Z,13.90
2019-01-25T20:12:42.988Z,17.30
2019-01-25T20:15:19.503Z,18.57
2019-01-25T20:17:45.379Z,20.47
2019-01-25T20:20:19.120Z,18.07
2019-01-25T20:22:47.349Z,18.17
2019-01-25T20:25:15.588Z,12.90
2019-01-25T20:27:43.800Z,18.00
2019-01-25T20:30:16.424Z,17.30
2019-01-25T20:32:44.649Z,16.60
2019-01-25T20:35:15.068Z,17.57
2019-01-25T20:37:43.296Z,17.67
2019-01-25T20:40:12.851Z,13.47
2019-01-25T20:42:41.177Z,14.33
2019-01-25T20:45:13.937Z,16.20
2019-01-25T20:47:42.168Z,17.27
2019-01-25T20:50:11.944Z,13.87
2019-01-25T20:52:40.173Z,18.30
2019-01-25T20:55:09.910Z,15.30
2019-01-25T20:57:38.141Z,13.27
2019-01-25T21:00:08.570Z,18.20
2019-01-25T21:02:37.128Z,16.80
2019-01-25T21:05:06.787Z,16.83
2019-01-25T21:07:35.069Z,15.97
2019-01-25T21:10:04.932Z,17.33
2019-01-25T21:12:33.165Z,15.43
2019-01-25T21:15:01.360Z,15.80
2019-01-25T21:17:29.573Z,16.60
2019-01-25T21:19:57.793Z,16.03
2019-01-25T21:22:26.034Z,18.03
2019-01-25T21:24:54.212Z,18.63
2019-01-25T21:27:22.440Z,17.43
2019-01-25T21:29:50.640Z,15.53
2019-01-25T21:32:18.857Z,18.33
2019-01-25T21:34:47.089Z,17.47
2019-01-25T21:37:15.292Z,17.50
2019-01-25T21:39:43.500Z,17.90
2019-01-25T21:42:11.759Z,18.70
2019-01-25T21:44:39.944Z,17.17
2019-01-25T21:47:08.149Z,20.00
2019-01-25T21:49:36.332Z,19.00
2019-01-25T21:52:04.576Z,18.63
2019-01-25T21:54:32.824Z,19.00
2019-01-25T21:57:01.057Z,19.80
2019-01-25T21:59:29.252Z,20.00
2019-01-25T22:01:57.444Z,19.50
2019-01-25T22:04:25.650Z,21.40
2019-01-25T22:06:53.828Z,21.20
2019-01-25T22:09:22.052Z,20.37
2019-01-25T22:11:50.278Z,21.40
2019-01-25T22:14:18.565Z,22.17
2019-01-25T22:16:46.865Z,20.93
2019-01-25T22:19:15.086Z,20.87
2019-01-25T22:21:43.293Z,22.83
2019-01-25T22:24:11.492Z,22.07
2019-01-25T22:26:39.713Z,21.70
2019-01-25T22:29:07.907Z,22.43
2019-01-25T22:31:36.108Z,21.30
2019-01-25T22:34:04.294Z,23.57
2019-01-25T22:36:32.530Z,21.37
2019-01-25T22:39:00.773Z,23.57
2019-01-25T22:41:28.997Z,22.63
2019-01-25T22:43:57.205Z,21.03
2019-01-25T22:46:25.441Z,22.93
2019-01-25T22:48:53.620Z,20.93
2019-01-25T22:51:21.852Z,21.03
2019-01-25T22:53:50.091Z,19.33
2019-01-25T22:56:18.304Z,20.00
2019-01-25T22:58:46.487Z,20.97
2019-01-25T23:01:17.225Z,20.63
2019-01-25T23:04:02.271Z,20.30
2019-01-25T23:06:31.996Z,19.50
2019-01-25T23:09:01.771Z,21.43
2019-01-25T23:11:30.029Z,20.87
2019-01-25T23:13:58.244Z,19.93
2019-01-25T23:16:26.455Z,19.17
2019-01-25T23:18:54.723Z,20.93
2019-01-25T23:21:22.913Z,22.07
2019-01-25T23:23:51.136Z,20.70
2019-01-25T23:26:19.322Z,20.20
2019-01-25T23:28:47.538Z,21.80
2019-01-25T23:31:15.762Z,21.33
2019-01-25T23:33:43.983Z,21.43
2019-01-25T23:36:12.167Z,20.93
2019-01-25T23:38:40.390Z,20.30
2019-01-25T23:41:08.613Z,19.93
2019-01-25T23:43:36.796Z,21.00
2019-01-25T23:46:05.002Z,21.87
2019-01-25T23:48:33.245Z,21.60
2019-01-25T23:51:01.452Z,21.10
2019-01-25T23:53:29.631Z,20.50
2019-01-25T23:55:57.868Z,21.80
2019-01-25T23:58:26.047Z,22.83
